createdAt,value
2022-12-08T00:01:34.435Z,99.90
2022-12-08T00:04:05.092Z,99.90
2022-12-08T00:06:56.284Z,99.90
2022-12-08T00:09:39.524Z,99.90
2022-12-08T00:12:16.489Z,99.90
2022-12-08T00:14:49.639Z,99.90
2022-12-08T00:17:17.655Z,99.90
2022-12-08T00:19:45.024Z,99.90
2022-12-08T00:22:14.620Z,99.90
2022-12-08T00:24:45.412Z,99.90
2022-12-08T00:27:16.259Z,99.90
2022-12-08T00:29:46.496Z,99.90
2022-12-08T00:32:13.591Z,99.90
2022-12-08T00:34:40.494Z,99.90
2022-12-08T00:37:07.347Z,99.90
2022-12-08T00:39:34.362Z,99.90
2022-12-08T00:42:13.400Z,99.90
2022-12-08T00:44:42.994Z,99.90
2022-12-08T00:47:11.806Z,99.90
2022-12-08T00:49:38.849Z,99.90
2022-12-08T00:52:06.545Z,99.90
2022-12-08T00:54:33.413Z,99.90
2022-12-08T00:57:00.290Z,99.90
2022-12-08T00:59:27.186Z,99.90
2022-12-08T01:01:54.043Z,99.90
2022-12-08T01:04:21.666Z,99.90
2022-12-08T01:06:49.010Z,99.90
2022-12-08T01:09:17.997Z,99.90
2022-12-08T01:11:45.823Z,99.90
2022-12-08T01:14:13.961Z,99.90
2022-12-08T01:16:41.548Z,99.90
2022-12-08T01:19:12.841Z,99.90
2022-12-08T01:21:42.278Z,99.90
2022-12-08T01:24:15.997Z,99.90
2022-12-08T01:26:43.593Z,99.90
2022-12-08T01:29:12.213Z,99.90
2022-12-08T01:31:40.242Z,99.90
2022-12-08T01:34:10.036Z,99.90
2022-12-08T01:36:38.171Z,99.90
2022-12-08T01:39:17.276Z,99.90
2022-12-08T01:41:46.569Z,99.90
2022-12-08T01:44:13.311Z,99.90
2022-12-08T01:46:45.066Z,99.90
2022-12-08T01:49:35.343Z,99.90
2022-12-08T01:52:20.764Z,99.90
2022-12-08T01:55:02.395Z,99.90
2022-12-08T01:57:50.693Z,99.90
2022-12-08T02:00:22.844Z,99.90
2022-12-08T02:03:03.886Z,99.90
2022-12-08T02:05:38.751Z,99.90
2022-12-08T02:08:13.657Z,99.90
2022-12-08T02:10:43.197Z,99.90
2022-12-08T02:13:17.794Z,99.90
2022-12-08T02:16:25.291Z,99.90
2022-12-08T02:19:32.144Z,99.90
2022-12-08T02:22:26.247Z,99.90
2022-12-08T02:25:38.879Z,99.90
2022-12-08T02:29:06.756Z,99.90
2022-12-08T02:32:41.884Z,99.90
2022-12-08T02:35:30.995Z,99.90
2022-12-08T02:38:48.451Z,99.90
2022-12-08T02:41:39.345Z,99.90
2022-12-08T02:44:30.836Z,99.90
2022-12-08T02:47:08.335Z,99.90
2022-12-08T02:49:36.688Z,99.90
2022-12-08T02:52:12.702Z,99.90
2022-12-08T02:54:53.171Z,99.90
2022-12-08T02:58:24.548Z,99.90
2022-12-08T03:01:54.648Z,99.90
2022-12-08T03:05:11.079Z,99.90
2022-12-08T03:08:22.717Z,99.90
2022-12-08T03:11:30.504Z,99.90
2022-12-08T03:14:03.538Z,99.90
2022-12-08T03:16:36.692Z,99.90
2022-12-08T03:19:27.814Z,99.90
2022-12-08T03:22:04.480Z,99.90
2022-12-08T03:24:41.869Z,99.90
2022-12-08T03:27:16.689Z,99.90
2022-12-08T03:29:43.961Z,99.90
2022-12-08T03:32:40.006Z,99.90
2022-12-08T03:35:17.437Z,99.90
2022-12-08T03:37:44.625Z,99.90
2022-12-08T03:40:18.305Z,99.90
2022-12-08T03:42:45.143Z,99.90
2022-12-08T03:45:12.430Z,99.90
2022-12-08T03:47:39.601Z,99.90
2022-12-08T03:50:07.628Z,99.90
2022-12-08T03:52:34.534Z,99.90
2022-12-08T03:55:01.366Z,99.90
2022-12-08T03:57:28.309Z,99.90
2022-12-08T03:59:55.150Z,99.90
2022-12-08T04:02:22.266Z,99.90
2022-12-08T04:04:49.190Z,99.90
2022-12-08T04:07:16.051Z,99.90
2022-12-08T04:09:43.026Z,99.90
2022-12-08T04:12:09.899Z,99.90
2022-12-08T04:14:36.764Z,99.90
2022-12-08T04:17:03.622Z,99.90
2022-12-08T04:19:30.573Z,99.90
2022-12-08T04:21:57.455Z,99.90
2022-12-08T04:24:24.326Z,99.90
2022-12-08T04:26:51.166Z,99.90
2022-12-08T04:29:18.270Z,99.90
2022-12-08T04:31:45.199Z,99.90
2022-12-08T04:34:12.134Z,99.90
2022-12-08T04:36:38.983Z,99.90
2022-12-08T04:39:06.730Z,99.90
2022-12-08T04:41:33.847Z,99.90
2022-12-08T04:44:00.683Z,99.90
2022-12-08T04:46:27.552Z,99.90
2022-12-08T04:48:54.479Z,99.90
2022-12-08T04:51:21.965Z,99.90
2022-12-08T04:53:48.879Z,99.90
2022-12-08T04:56:19.451Z,99.90
2022-12-08T04:58:46.806Z,99.90
2022-12-08T05:01:14.560Z,99.90
2022-12-08T05:03:41.566Z,99.90
2022-12-08T05:06:14.046Z,99.90
2022-12-08T05:08:43.389Z,99.90
2022-12-08T05:11:12.491Z,99.90
2022-12-08T05:13:39.379Z,99.90
2022-12-08T05:16:14.391Z,99.90
2022-12-08T05:18:42.840Z,99.90
2022-12-08T05:21:10.887Z,99.90
2022-12-08T05:23:38.165Z,99.90
2022-12-08T05:26:05.309Z,99.90
2022-12-08T05:28:41.405Z,99.90
2022-12-08T05:31:09.500Z,99.90
2022-12-08T05:33:36.391Z,99.90
2022-12-08T05:36:03.488Z,99.90
2022-12-08T05:38:30.423Z,99.90
2022-12-08T05:40:57.288Z,99.90
2022-12-08T05:43:24.557Z,99.90
2022-12-08T05:45:51.483Z,99.90
2022-12-08T05:48:18.412Z,99.90
2022-12-08T05:50:50.619Z,99.90
2022-12-08T05:53:20.442Z,99.90
2022-12-08T05:55:48.012Z,99.90
2022-12-08T05:58:20.301Z,99.90
2022-12-08T06:00:48.677Z,99.90
2022-12-08T06:03:19.628Z,99.90
2022-12-08T06:05:47.629Z,99.90
2022-12-08T06:08:14.889Z,99.90
2022-12-08T06:10:44.776Z,99.90
2022-12-08T06:13:11.672Z,99.90
2022-12-08T06:15:40.270Z,99.90
2022-12-08T06:18:09.543Z,99.90
2022-12-08T06:20:36.398Z,99.90
2022-12-08T06:23:03.397Z,99.90
2022-12-08T06:25:30.429Z,99.90
2022-12-08T06:27:57.334Z,99.90
2022-12-08T06:30:24.353Z,99.90
2022-12-08T06:32:51.225Z,99.90
2022-12-08T06:35:18.234Z,99.90
2022-12-08T06:37:45.097Z,99.90
2022-12-08T06:40:12.758Z,99.90
2022-12-08T06:42:46.755Z,99.90
2022-12-08T06:45:18.098Z,99.90
2022-12-08T06:47:45.358Z,99.90
2022-12-08T06:50:13.915Z,99.90
2022-12-08T06:52:51.730Z,99.90
2022-12-08T06:55:57.506Z,99.90
2022-12-08T06:58:14.587Z,99.90
2022-12-08T07:00:42.245Z,99.90
2022-12-08T07:03:11.710Z,99.90
2022-12-08T07:05:39.278Z,99.90
2022-12-08T07:08:08.988Z,99.90
2022-12-08T07:10:36.597Z,99.90
2022-12-08T07:13:04.471Z,99.90
2022-12-08T07:15:31.412Z,99.90
2022-12-08T07:18:00.347Z,99.90
2022-12-08T07:20:28.279Z,99.90
2022-12-08T07:22:55.536Z,99.90
2022-12-08T07:25:23.406Z,99.90
2022-12-08T07:27:51.540Z,99.90
2022-12-08T07:30:19.059Z,99.90
2022-12-08T07:32:46.626Z,99.90
2022-12-08T07:35:13.706Z,99.90
2022-12-08T07:37:41.110Z,99.90
2022-12-08T07:40:10.277Z,99.90
2022-12-08T07:42:37.343Z,99.90
2022-12-08T07:45:04.766Z,99.90
2022-12-08T07:47:31.651Z,99.90
2022-12-08T07:49:58.567Z,99.90
2022-12-08T07:52:25.439Z,99.90
2022-12-08T07:54:52.334Z,99.90
2022-12-08T07:57:19.208Z,99.90
2022-12-08T07:59:46.053Z,99.90
2022-12-08T08:02:25.356Z,99.90
2022-12-08T08:04:53.422Z,99.90
2022-12-08T08:07:20.451Z,99.90
2022-12-08T08:09:47.308Z,99.90
2022-12-08T08:12:30.881Z,99.90
2022-12-08T08:14:59.733Z,99.90
2022-12-08T08:17:26.871Z,99.90
2022-12-08T08:19:53.832Z,99.90
2022-12-08T08:22:20.752Z,99.90
2022-12-08T08:24:47.716Z,99.90
2022-12-08T08:27:14.607Z,99.90
2022-12-08T08:29:41.443Z,99.90
2022-12-08T08:32:08.530Z,99.90
2022-12-08T08:34:35.406Z,99.90
2022-12-08T08:37:02.347Z,99.90
2022-12-08T08:39:31.590Z,99.90
2022-12-08T08:41:58.631Z,99.90
2022-12-08T08:44:25.540Z,99.90
2022-12-08T08:46:52.428Z,99.90
2022-12-08T08:49:19.981Z,99.90
2022-12-08T08:51:47.029Z,99.90
2022-12-08T08:54:14.008Z,99.90
2022-12-08T08:56:40.918Z,99.90
2022-12-08T08:59:09.136Z,99.90
2022-12-08T09:03:53.122Z,99.90
2022-12-08T09:06:21.598Z,99.90
2022-12-08T09:08:50.221Z,99.90
2022-12-08T09:11:20.498Z,99.90
2022-12-08T09:13:52.812Z,99.90
2022-12-08T09:16:20.403Z,99.90
2022-12-08T09:18:49.199Z,99.90
2022-12-08T09:21:22.699Z,99.90
2022-12-08T09:23:54.234Z,99.90
2022-12-08T09:26:23.122Z,99.90
2022-12-08T09:28:56.411Z,99.90
2022-12-08T09:31:25.065Z,99.90
2022-12-08T09:33:52.136Z,99.90
2022-12-08T09:36:20.726Z,99.90
2022-12-08T09:38:48.997Z,99.90
2022-12-08T09:41:48.206Z,99.90
2022-12-08T09:44:39.993Z,99.90
2022-12-08T09:47:51.485Z,99.90
2022-12-08T09:50:52.455Z,99.90
2022-12-08T09:53:36.793Z,99.90
2022-12-08T09:56:24.911Z,99.90
2022-12-08T09:59:22.748Z,99.90
2022-12-08T10:01:50.757Z,99.90
2022-12-08T10:04:34.872Z,99.90
2022-12-08T10:07:20.555Z,99.90
2022-12-08T10:10:07.990Z,99.90
2022-12-08T10:13:06.343Z,99.90
2022-12-08T10:16:08.515Z,98.90
2022-12-08T10:18:37.854Z,93.20
2022-12-08T10:21:20.391Z,92.20
2022-12-08T10:23:58.451Z,92.10
2022-12-08T10:26:25.308Z,92.30
2022-12-08T10:28:52.338Z,92.40
2022-12-08T10:31:23.945Z,92.20
2022-12-08T10:34:19.519Z,90.90
2022-12-08T10:37:00.487Z,89.20
2022-12-08T10:39:43.644Z,84.40
2022-12-08T10:42:22.072Z,77.30
2022-12-08T10:45:41.615Z,71.60
2022-12-08T10:48:37.276Z,69.20
2022-12-08T10:51:05.565Z,64.00
2022-12-08T10:53:44.039Z,62.90
2022-12-08T10:56:17.336Z,61.20
2022-12-08T10:58:47.645Z,62.50
2022-12-08T11:01:23.880Z,65.90
2022-12-08T11:04:03.952Z,69.80
2022-12-08T11:06:35.485Z,73.20
2022-12-08T11:09:25.519Z,74.50
2022-12-08T11:12:06.639Z,76.70
2022-12-08T11:14:51.127Z,79.20
2022-12-08T11:17:29.351Z,80.70
2022-12-08T11:20:22.769Z,84.40
2022-12-08T11:22:56.415Z,80.20
2022-12-08T11:25:27.919Z,71.70
2022-12-08T11:28:01.929Z,68.00
2022-12-08T11:30:38.835Z,64.70
2022-12-08T11:33:28.055Z,68.10
2022-12-08T11:36:05.689Z,72.10
2022-12-08T11:38:39.345Z,75.90
2022-12-08T11:41:27.205Z,75.20
2022-12-08T11:44:33.745Z,76.60
2022-12-08T11:47:20.502Z,78.60
2022-12-08T11:49:56.593Z,80.30
2022-12-08T11:52:41.925Z,80.10
2022-12-08T11:55:48.459Z,79.70
2022-12-08T11:58:45.981Z,80.40
2022-12-08T12:01:30.996Z,80.60
2022-12-08T12:04:32.977Z,80.60
2022-12-08T12:07:49.165Z,81.50
2022-12-08T12:11:09.998Z,80.90
2022-12-08T12:14:46.502Z,80.80
2022-12-08T12:18:01.900Z,80.80
2022-12-08T12:20:48.556Z,80.20
2022-12-08T12:23:42.233Z,78.50
2022-12-08T12:26:22.321Z,79.50
2022-12-08T12:29:21.292Z,79.20
2022-12-08T12:31:58.245Z,79.70
2022-12-08T12:34:33.005Z,80.70
2022-12-08T12:37:23.561Z,79.90
2022-12-08T12:40:03.236Z,81.10
2022-12-08T12:43:07.670Z,79.40
2022-12-08T12:45:36.418Z,78.10
2022-12-08T12:48:03.155Z,79.30
2022-12-08T12:50:33.342Z,78.60
2022-12-08T12:53:26.500Z,79.60
2022-12-08T12:56:02.151Z,79.50
2022-12-08T12:58:29.443Z,81.20
2022-12-08T13:01:11.921Z,81.80
2022-12-08T13:03:51.524Z,75.80
2022-12-08T13:06:48.485Z,72.50
2022-12-08T13:09:43.705Z,72.90
2022-12-08T13:12:23.468Z,75.00
2022-12-08T13:14:54.890Z,77.60
2022-12-08T13:17:38.322Z,78.50
2022-12-08T13:20:20.382Z,78.50
2022-12-08T13:22:52.801Z,79.80
2022-12-08T13:25:48.244Z,80.50
2022-12-08T13:28:59.204Z,81.00
2022-12-08T13:32:02.428Z,81.30
2022-12-08T13:34:51.346Z,82.10
2022-12-08T13:37:55.488Z,83.00
2022-12-08T13:40:30.157Z,82.90
2022-12-08T13:43:16.962Z,83.60
2022-12-08T13:46:48.794Z,84.30
2022-12-08T13:56:05.512Z,84.60
2022-12-08T13:57:36.653Z,85.50
2022-12-08T14:00:18.220Z,85.60
2022-12-08T14:03:00.155Z,81.40
2022-12-08T14:06:11.161Z,80.30
2022-12-08T14:12:17.364Z,82.50
2022-12-08T14:15:06.016Z,80.60
2022-12-08T14:17:34.252Z,81.80
2022-12-08T14:20:11.625Z,80.80
2022-12-08T14:22:41.490Z,79.20
2022-12-08T14:25:15.954Z,79.70
2022-12-08T14:27:44.420Z,81.50
2022-12-08T14:30:14.576Z,82.90
2022-12-08T14:33:01.385Z,84.10
2022-12-08T14:35:39.263Z,85.60
2022-12-08T14:38:17.801Z,86.90
2022-12-08T14:41:01.404Z,87.60
2022-12-08T14:43:30.773Z,88.60
2022-12-08T14:46:23.123Z,89.70
2022-12-08T14:48:50.311Z,90.10
2022-12-08T14:51:33.302Z,90.30
2022-12-08T14:54:18.633Z,90.50
2022-12-08T14:56:56.303Z,90.80
2022-12-08T14:59:37.929Z,91.40
2022-12-08T15:02:31.778Z,91.40
2022-12-08T15:05:05.289Z,91.70
2022-12-08T15:07:55.541Z,92.00
2022-12-08T15:10:37.916Z,92.30
2022-12-08T15:13:22.642Z,92.80
2022-12-08T15:15:57.691Z,93.10
2022-12-08T15:18:38.051Z,93.40
2022-12-08T15:21:12.669Z,93.80
2022-12-08T15:23:51.891Z,94.00
2022-12-08T15:26:27.950Z,94.50
2022-12-08T15:28:55.688Z,95.10
2022-12-08T15:31:22.789Z,95.70
2022-12-08T15:33:49.683Z,96.30
2022-12-08T15:36:16.649Z,96.70
2022-12-08T15:38:43.648Z,96.70
2022-12-08T15:41:14.815Z,96.70
2022-12-08T15:43:42.305Z,96.70
2022-12-08T15:46:09.290Z,96.80
2022-12-08T15:48:37.988Z,97.20
2022-12-08T15:51:05.031Z,97.60
2022-12-08T15:53:31.908Z,97.90
2022-12-08T15:56:26.939Z,98.30
2022-12-08T15:58:54.089Z,98.80
2022-12-08T16:01:22.189Z,99.60
2022-12-08T16:09:40.024Z,99.90
2022-12-08T16:18:28.771Z,99.90
2022-12-08T16:21:09.560Z,99.90
2022-12-08T16:23:45.258Z,99.90
2022-12-08T16:26:54.652Z,99.90
2022-12-08T16:29:08.118Z,99.90
2022-12-08T16:31:35.375Z,99.90
2022-12-08T16:34:02.333Z,99.90
2022-12-08T16:36:29.266Z,99.90
2022-12-08T16:38:56.274Z,99.90
2022-12-08T16:41:42.071Z,99.90
2022-12-08T16:44:08.923Z,99.90
2022-12-08T16:46:36.859Z,99.90
2022-12-08T16:49:09.348Z,99.90
2022-12-08T16:51:36.199Z,99.90
2022-12-08T16:54:03.200Z,99.90
2022-12-08T16:56:33.055Z,99.90
2022-12-08T16:59:02.078Z,99.90
2022-12-08T17:01:29.342Z,99.90
2022-12-08T17:04:29.193Z,99.90
2022-12-08T17:06:43.433Z,99.90
2022-12-08T17:09:10.404Z,99.90
2022-12-08T17:11:42.714Z,99.90
2022-12-08T17:14:12.966Z,99.90
2022-12-08T17:16:41.125Z,99.90
2022-12-08T17:19:08.479Z,99.90
2022-12-08T17:21:35.804Z,99.90
2022-12-08T17:24:02.756Z,99.90
2022-12-08T17:26:29.672Z,99.90
2022-12-08T17:29:01.203Z,99.90
2022-12-08T17:31:31.762Z,99.90
2022-12-08T17:34:08.225Z,99.90
2022-12-08T17:36:35.086Z,99.90
2022-12-08T17:39:02.336Z,99.90
2022-12-08T17:41:30.391Z,99.90
2022-12-08T17:43:57.709Z,99.90
2022-12-08T17:46:24.763Z,99.90
2022-12-08T17:48:52.887Z,99.90
2022-12-08T17:51:20.005Z,99.90
2022-12-08T17:53:46.877Z,99.90
2022-12-08T17:56:21.487Z,99.90
2022-12-08T17:58:54.359Z,99.90
2022-12-08T18:01:24.020Z,99.90
2022-12-08T18:03:51.508Z,99.90
2022-12-08T18:06:18.567Z,99.90
2022-12-08T18:08:45.687Z,99.90
2022-12-08T18:11:20.366Z,99.90
2022-12-08T18:13:51.145Z,99.90
2022-12-08T18:16:22.955Z,99.90
2022-12-08T18:18:51.099Z,99.90
2022-12-08T18:21:23.278Z,99.90
2022-12-08T18:23:51.533Z,99.90
2022-12-08T18:26:19.146Z,99.90
2022-12-08T18:28:46.046Z,99.90
2022-12-08T18:31:18.553Z,99.90
2022-12-08T18:33:48.120Z,99.90
2022-12-08T18:36:25.237Z,99.90
2022-12-08T18:38:53.156Z,99.90
2022-12-08T18:41:25.596Z,99.90
2022-12-08T18:43:55.497Z,99.90
2022-12-08T18:46:24.026Z,99.90
2022-12-08T18:48:52.766Z,99.90
2022-12-08T18:51:24.338Z,99.90
2022-12-08T18:53:52.520Z,99.90
2022-12-08T18:56:31.168Z,99.90
2022-12-08T18:59:07.034Z,99.90
2022-12-08T19:01:37.820Z,99.90
2022-12-08T19:06:57.340Z,99.90
2022-12-08T19:09:26.673Z,99.90
2022-12-08T19:11:53.918Z,99.90
2022-12-08T19:14:27.908Z,99.90
2022-12-08T19:16:58.793Z,99.90
2022-12-08T19:19:27.750Z,99.90
2022-12-08T19:21:55.489Z,99.90
2022-12-08T19:24:23.154Z,99.90
2022-12-08T19:26:50.482Z,99.90
2022-12-08T19:29:17.514Z,99.90
2022-12-08T19:31:45.016Z,99.90
2022-12-08T19:34:15.607Z,99.90
2022-12-08T19:36:43.987Z,99.90
2022-12-08T19:39:39.579Z,99.90
2022-12-08T19:42:36.684Z,99.90
2022-12-08T19:45:15.362Z,99.90
2022-12-08T19:47:43.471Z,99.90
2022-12-08T19:50:33.357Z,99.90
2022-12-08T19:53:01.638Z,99.90
2022-12-08T19:55:29.217Z,99.90
2022-12-08T19:57:59.663Z,99.90
2022-12-08T20:00:26.538Z,99.90
2022-12-08T20:02:53.495Z,99.90
2022-12-08T20:05:20.499Z,99.90
2022-12-08T20:07:47.539Z,99.90
2022-12-08T20:10:23.609Z,99.90
2022-12-08T20:12:50.524Z,99.90
2022-12-08T20:15:17.610Z,99.90
2022-12-08T20:17:44.560Z,99.90
2022-12-08T20:20:14.024Z,99.90
2022-12-08T20:22:41.386Z,99.90
2022-12-08T20:25:12.826Z,99.90
2022-12-08T20:27:40.874Z,99.90
2022-12-08T20:30:15.010Z,99.90
2022-12-08T20:32:42.019Z,99.90
2022-12-08T20:35:09.444Z,99.90
2022-12-08T20:37:36.366Z,99.90
2022-12-08T20:40:05.975Z,99.90
2022-12-08T20:42:32.861Z,99.90
2022-12-08T20:44:59.721Z,99.90
2022-12-08T20:47:26.627Z,99.90
2022-12-08T20:49:53.663Z,99.90
2022-12-08T20:52:20.530Z,99.90
2022-12-08T20:54:47.683Z,99.90
2022-12-08T20:57:14.584Z,99.90
2022-12-08T20:59:41.811Z,99.90
2022-12-08T21:02:11.223Z,99.90
2022-12-08T21:04:38.458Z,99.90
2022-12-08T21:07:05.556Z,99.90
2022-12-08T21:09:32.634Z,99.90
2022-12-08T21:11:59.775Z,99.90
2022-12-08T21:14:26.722Z,99.90
2022-12-08T21:16:54.607Z,99.90
2022-12-08T21:19:22.698Z,99.90
2022-12-08T21:21:50.736Z,99.90
2022-12-08T21:24:19.316Z,99.90
2022-12-08T21:26:46.488Z,99.90
2022-12-08T21:29:13.706Z,99.90
2022-12-08T21:31:40.887Z,99.90
2022-12-08T21:34:08.293Z,99.90
2022-12-08T21:36:35.193Z,99.90
2022-12-08T21:39:02.842Z,99.90
2022-12-08T21:41:48.809Z,99.90
2022-12-08T21:44:20.517Z,99.90
2022-12-08T21:46:47.852Z,99.90
2022-12-08T21:49:15.150Z,99.90
2022-12-08T21:51:42.530Z,99.90
2022-12-08T21:54:18.288Z,99.90
2022-12-08T21:56:49.104Z,99.90
2022-12-08T21:59:18.223Z,99.90
2022-12-08T22:01:45.272Z,99.90
2022-12-08T22:04:18.578Z,99.90
2022-12-08T22:06:45.942Z,99.90
2022-12-08T22:09:15.225Z,99.90
2022-12-08T22:11:43.534Z,99.90
2022-12-08T22:14:14.835Z,99.90
2022-12-08T22:16:43.453Z,99.90
2022-12-08T22:19:11.053Z,99.90
2022-12-08T22:21:38.269Z,99.90
2022-12-08T22:24:06.143Z,99.90
2022-12-08T22:26:34.391Z,99.90
2022-12-08T22:29:01.680Z,99.90
2022-12-08T22:31:28.690Z,99.90
2022-12-08T22:33:55.952Z,99.90
2022-12-08T22:36:26.942Z,99.90
2022-12-08T22:38:54.744Z,99.90
2022-12-08T22:41:23.298Z,99.90
2022-12-08T22:43:51.264Z,99.90
2022-12-08T22:46:27.329Z,99.90
2022-12-08T22:48:55.273Z,99.90
2022-12-08T22:51:22.181Z,99.90
2022-12-08T22:53:49.475Z,99.90
2022-12-08T22:56:18.687Z,99.90
2022-12-08T22:58:46.448Z,99.90
2022-12-08T23:01:34.265Z,99.90
2022-12-08T23:04:02.609Z,99.90
2022-12-08T23:06:30.965Z,99.90
2022-12-08T23:08:59.262Z,99.90
2022-12-08T23:11:30.764Z,99.90
2022-12-08T23:14:00.648Z,99.90
2022-12-08T23:16:28.911Z,99.90
2022-12-08T23:18:56.524Z,99.90
2022-12-08T23:21:23.469Z,99.90
2022-12-08T23:23:50.487Z,99.90
2022-12-08T23:26:26.737Z,99.90
2022-12-08T23:28:55.096Z,99.90
2022-12-08T23:31:24.310Z,99.90
2022-12-08T23:33:52.414Z,99.90
2022-12-08T23:36:22.625Z,99.90
2022-12-08T23:38:49.654Z,99.90
2022-12-08T23:41:17.327Z,99.90
2022-12-08T23:43:51.549Z,99.90
2022-12-08T23:46:22.805Z,99.90
2022-12-08T23:48:51.385Z,99.90
2022-12-08T23:51:19.099Z,99.90
2022-12-08T23:53:47.092Z,99.90
2022-12-08T23:56:18.204Z,99.90
2022-12-08T23:58:46.436Z,99.90
